Terminal Aerodrome Forecast
Issued by NWS

Home | Current Version | Previous Version | Text Only | Print | Product List | Glossary On
Versions: 1 2 3 4 5 6 7 8 9 10 11 12 13 14 15 16 17 18
000
FTUS43 KGRB 011730
TAFATW
TAF
KATW 011730Z 0118/0218 36007KT P6SM SCT025 BKN250
     FM012200 07005KT P6SM FEW030
     FM020100 VRB03KT P6SM SKC
     FM020800 00000KT P6SM SKC
      TEMPO 0208/0211 3SM BR
     FM021100 05006KT P6SM SKC=

USA.gov is the U.S. government's official web portal to all federal, state and local government web resources and services.